Time;durP1;ratioP1;P1;durP2;ratioP2;P2;SDS_P1;SDS_P2;PMS_P1;PMS_P2;Temp;Humidity;BMP_temperature;BMP_pressure;BME280_temperature;BME280_humidity;BME280_pressure;Samples;Min_cycle;Max_cycle;Signal;HPM_P1;HPM_P2
2024/04/14 00:00:19;;;;;;;9.35;5.35;;;14.30;99.90;;;;;;5176401;27;20007;-73
2024/04/14 00:02:45;;;;;;;9.13;5.25;;;14.20;99.90;;;;;;5176408;27;20001;-74
2024/04/14 00:05:10;;;;;;;6.97;5.13;;;14.20;99.90;;;;;;5167680;27;20076;-73
2024/04/14 00:07:37;;;;;;;9.30;5.80;;;14.20;99.90;;;;;;5200020;27;20007;-74
2024/04/14 00:10:03;;;;;;;9.73;5.93;;;14.20;99.90;;;;;;5208661;27;20000;-73
2024/04/14 00:12:29;;;;;;;7.25;5.20;;;14.10;99.90;;;;;;5209397;27;20010;-73
2024/04/14 00:14:55;;;;;;;7.95;5.60;;;14.20;99.90;;;;;;5166481;27;20005;-73
2024/04/14 00:17:20;;;;;;;9.75;5.80;;;14.20;99.90;;;;;;5175853;27;20000;-73
2024/04/14 00:19:51;;;;;;;9.77;5.60;;;14.10;99.90;;;;;;5176005;27;20011;-73
2024/04/14 00:22:17;;;;;;;10.32;5.93;;;14.10;99.90;;;;;;5200714;27;20027;-73
2024/04/14 00:24:42;;;;;;;8.05;5.68;;;14.10;99.90;;;;;;5208666;27;19996;-73
2024/04/14 00:27:08;;;;;;;7.22;5.72;;;14.10;99.90;;;;;;5207573;27;20000;-73
2024/04/14 00:29:33;;;;;;;10.23;5.90;;;14.10;99.90;;;;;;5208563;27;20451;-73
2024/04/14 00:31:59;;;;;;;10.00;5.32;;;14.10;99.90;;;;;;5208636;27;20024;-75
2024/04/14 00:34:24;;;;;;;7.75;5.55;;;14.10;99.90;;;;;;5208787;27;19999;-74
2024/04/14 00:36:50;;;;;;;9.52;6.03;;;14.00;99.90;;;;;;5208187;27;20036;-73
2024/04/14 00:39:15;;;;;;;10.73;6.22;;;14.00;99.90;;;;;;5208331;27;19999;-73
2024/04/14 00:41:41;;;;;;;8.40;6.10;;;14.00;99.90;;;;;;5214673;27;20011;-74
2024/04/14 00:44:07;;;;;;;9.68;6.05;;;14.00;99.90;;;;;;5274785;27;20142;-74
2024/04/14 00:46:32;;;;;;;8.35;5.82;;;14.00;99.90;;;;;;5274810;27;20442;-74
2024/04/14 00:48:58;;;;;;;24.95;14.15;;;14.00;99.90;;;;;;5326118;26;20071;-74
2024/04/14 00:51:25;;;;;;;15.95;10.77;;;14.00;99.90;;;;;;5344094;26;19996;-74
2024/04/14 00:53:51;;;;;;;11.57;8.35;;;14.00;99.90;;;;;;5309225;27;20445;-73
2024/04/14 00:56:17;;;;;;;10.38;6.70;;;14.00;99.90;;;;;;5309417;27;20008;-74
2024/04/14 00:58:45;;;;;;;10.32;6.38;;;13.90;99.90;;;;;;5309085;27;19997;-74
2024/04/14 01:01:13;;;;;;;8.95;6.63;;;13.90;99.90;;;;;;5275021;27;19991;-74
2024/04/14 01:03:39;;;;;;;9.38;6.60;;;13.90;99.90;;;;;;5275039;27;19998;-74
2024/04/14 01:06:05;;;;;;;8.40;6.32;;;13.90;99.90;;;;;;5275287;27;20009;-73
2024/04/14 01:08:31;;;;;;;8.07;6.05;;;13.90;1.00;;;;;;5166421;27;19997;-74
2024/04/14 01:10:57;;;;;;;8.80;6.18;;;13.80;1.00;;;;;;5142926;27;20387;-74
2024/04/14 01:13:22;;;;;;;10.25;6.30;;;13.80;1.00;;;;;;5240992;27;20080;-73
2024/04/14 01:15:48;;;;;;;8.63;6.15;;;13.70;1.00;;;;;;5215925;27;20022;-74
2024/04/14 01:18:13;;;;;;;9.05;6.30;;;13.70;1.00;;;;;;5240994;27;20007;-74
2024/04/14 01:20:39;;;;;;;9.10;6.10;;;13.70;1.00;;;;;;5207569;27;20021;-74
2024/04/14 01:23:05;;;;;;;9.20;6.70;;;13.70;1.00;;;;;;5207750;27;19996;-74
2024/04/14 01:25:31;;;;;;;9.00;6.00;;;13.70;1.00;;;;;;5199344;27;19996;-74
2024/04/14 01:27:56;;;;;;;9.20;6.82;;;13.70;1.00;;;;;;5207910;27;19999;-74
2024/04/14 01:30:22;;;;;;;10.68;6.70;;;13.60;1.00;;;;;;5118601;27;20001;-73
2024/04/14 01:32:48;;;;;;;9.48;6.20;;;13.60;1.00;;;;;;5088138;28;20031;-74
2024/04/14 01:35:13;;;;;;;9.07;6.35;;;13.60;1.00;;;;;;5188817;27;19996;-74
2024/04/14 01:37:39;;;;;;;9.85;6.30;;;13.50;20.80;;;;;;5174703;27;20000;-74
2024/04/14 01:40:05;;;;;;;8.60;6.78;;;13.50;45.00;;;;;;5100355;27;19998;-74
2024/04/14 01:42:31;;;;;;;8.35;6.15;;;13.40;85.70;;;;;;5113271;28;20013;-74
2024/04/14 01:44:56;;;;;;;9.73;6.65;;;13.40;99.90;;;;;;5113617;28;20074;-74
2024/04/14 01:47:22;;;;;;;7.13;6.30;;;13.40;99.90;;;;;;5113129;28;20010;-74
2024/04/14 01:49:48;;;;;;;9.55;6.60;;;13.30;99.90;;;;;;5028478;28;19996;-74
2024/04/14 01:52:14;;;;;;;8.70;6.35;;;13.30;99.90;;;;;;5019748;28;20082;-75
2024/04/14 01:54:40;;;;;;;10.60;7.35;;;13.30;99.90;;;;;;4989284;28;20453;-75
2024/04/14 01:57:06;;;;;;;11.43;6.88;;;13.30;99.90;;;;;;4967812;28;20002;-75
2024/04/14 01:59:31;;;;;;;9.75;6.60;;;13.30;99.90;;;;;;4959933;29;20016;-75
2024/04/14 02:01:57;;;;;;;9.07;6.78;;;13.30;99.90;;;;;;4989120;28;20001;-74
2024/04/14 02:04:23;;;;;;;9.32;7.72;;;13.20;99.90;;;;;;5050546;28;20000;-74
2024/04/14 02:06:49;;;;;;;9.68;7.63;;;13.20;99.90;;;;;;4983304;28;20476;-74
2024/04/14 02:09:15;;;;;;;11.93;7.78;;;13.20;99.90;;;;;;4951330;29;20001;-74
2024/04/14 02:11:40;;;;;;;10.35;7.38;;;13.20;99.90;;;;;;5020146;28;20406;-74
2024/04/14 02:14:06;;;;;;;10.30;7.22;;;13.20;99.90;;;;;;5087170;28;20002;-73
2024/04/14 02:16:31;;;;;;;9.98;7.32;;;13.20;99.90;;;;;;5115342;27;20295;-74
2024/04/14 02:18:57;;;;;;;10.75;7.32;;;13.20;99.90;;;;;;5177538;27;20313;-74
2024/04/14 02:21:23;;;;;;;10.52;7.40;;;13.20;99.90;;;;;;5154857;27;19997;-74
2024/04/14 02:23:48;;;;;;;9.43;7.22;;;13.20;99.90;;;;;;5145624;27;20025;-74
2024/04/14 02:26:14;;;;;;;8.63;7.63;;;13.20;99.90;;;;;;5168784;27;20424;-74
2024/04/14 02:28:39;;;;;;;13.52;7.45;;;13.20;99.90;;;;;;5145057;27;20475;-74
2024/04/14 02:31:05;;;;;;;9.93;6.85;;;13.20;99.90;;;;;;5145700;27;20008;-74
2024/04/14 02:33:31;;;;;;;11.05;7.15;;;13.20;99.90;;;;;;5168531;27;20010;-74
2024/04/14 02:36:01;;;;;;;9.75;6.95;;;13.20;99.90;;;;;;5201504;27;20008;-74
2024/04/14 02:38:27;;;;;;;8.43;6.78;;;13.10;99.90;;;;;;5234956;27;20031;-74
2024/04/14 02:41:00;;;;;;;9.45;6.90;;;13.20;99.90;;;;;;5243474;27;20002;-73
2024/04/14 02:43:26;;;;;;;12.55;7.80;;;13.10;99.90;;;;;;5210099;27;20023;-75
2024/04/14 02:45:53;;;;;;;8.85;6.85;;;13.10;99.90;;;;;;5276759;27;19998;-75
2024/04/14 02:48:19;;;;;;;10.38;7.20;;;13.10;99.90;;;;;;5277244;27;20022;-75
2024/04/14 02:50:45;;;;;;;11.20;7.05;;;13.10;99.90;;;;;;5331916;26;19993;-74
2024/04/14 02:53:10;;;;;;;14.27;7.75;;;13.10;99.90;;;;;;5345899;26;20067;-75
2024/04/14 02:55:39;;;;;;;9.48;6.90;;;13.20;99.90;;;;;;5345997;26;19993;-74
2024/04/14 02:58:05;;;;;;;8.43;6.68;;;13.20;99.90;;;;;;5345775;26;20021;-74
2024/04/14 03:00:32;;;;;;;9.63;6.57;;;13.20;99.90;;;;;;5346111;26;20008;-74
2024/04/14 03:02:58;;;;;;;9.98;6.70;;;13.20;99.90;;;;;;5346069;26;20000;-74
2024/04/14 03:05:24;;;;;;;8.52;6.88;;;13.20;99.90;;;;;;5352189;26;20449;-75
2024/04/14 03:07:50;;;;;;;8.73;6.57;;;13.10;99.90;;;;;;5380937;26;20000;-74
2024/04/14 03:10:16;;;;;;;8.80;7.15;;;13.20;99.90;;;;;;5345362;26;20008;-74
2024/04/14 03:12:41;;;;;;;7.97;7.10;;;13.10;99.90;;;;;;5345487;26;20412;-74
2024/04/14 03:15:07;;;;;;;10.77;6.75;;;13.10;99.90;;;;;;5373064;26;20029;-75
2024/04/14 03:17:33;;;;;;;8.30;6.47;;;13.10;99.90;;;;;;5380683;26;19992;-74
2024/04/14 03:19:59;;;;;;;9.73;7.20;;;13.10;99.90;;;;;;5380717;26;20427;-75
2024/04/14 03:22:24;;;;;;;8.25;6.57;;;13.10;99.90;;;;;;5345545;26;20042;-75
2024/04/14 03:24:50;;;;;;;9.57;7.18;;;13.10;99.90;;;;;;5345666;26;20019;-75
2024/04/14 03:27:16;;;;;;;9.57;7.20;;;13.10;99.90;;;;;;5345740;26;20001;-75
2024/04/14 03:29:47;;;;;;;9.25;7.38;;;13.20;99.90;;;;;;5345970;26;20062;-74
2024/04/14 03:32:14;;;;;;;9.55;7.28;;;13.20;99.90;;;;;;5345800;26;19993;-74
2024/04/14 03:34:40;;;;;;;11.32;7.40;;;13.20;99.90;;;;;;5344851;26;19997;-74
2024/04/14 03:37:08;;;;;;;8.38;6.90;;;13.20;99.90;;;;;;5345176;26;19997;-73
2024/04/14 03:39:34;;;;;;;8.13;6.90;;;13.20;99.90;;;;;;5345040;26;20008;-73
2024/04/14 03:42:00;;;;;;;9.70;7.57;;;13.20;99.90;;;;;;5345096;26;20012;-73
2024/04/14 03:44:28;;;;;;;9.68;6.70;;;13.20;99.90;;;;;;5276007;27;20064;-73
2024/04/14 03:46:54;;;;;;;11.05;7.03;;;13.30;99.90;;;;;;5276814;27;20188;-73
2024/04/14 03:49:20;;;;;;;11.00;7.13;;;13.20;99.90;;;;;;5276225;27;20339;-73
2024/04/14 03:51:45;;;;;;;9.23;7.43;;;13.30;99.90;;;;;;5276496;27;20049;-74
2024/04/14 03:54:11;;;;;;;9.07;6.78;;;13.30;99.90;;;;;;5303923;27;19998;-74
2024/04/14 03:56:36;;;;;;;11.35;7.85;;;13.40;99.90;;;;;;5310535;27;20002;-73
2024/04/14 03:59:03;;;;;;;8.52;7.28;;;13.30;99.90;;;;;;5344782;26;19997;-74
2024/04/14 04:01:29;;;;;;;11.15;7.60;;;13.40;99.90;;;;;;5344929;26;20034;-74
2024/04/14 04:03:54;;;;;;;8.93;6.88;;;13.40;99.90;;;;;;5344496;26;20003;-74
2024/04/14 04:06:20;;;;;;;10.05;7.32;;;13.40;99.90;;;;;;5344876;26;20444;-74
2024/04/14 04:08:46;;;;;;;8.70;7.00;;;13.40;99.90;;;;;;5344623;26;19997;-74
2024/04/14 04:11:11;;;;;;;10.23;7.00;;;13.50;99.90;;;;;;5344841;26;20007;-74
2024/04/14 04:13:37;;;;;;;20.13;7.78;;;13.50;99.90;;;;;;5344476;26;20032;-74
2024/04/14 04:16:04;;;;;;;10.52;7.30;;;13.60;99.90;;;;;;5396797;26;19992;-74
2024/04/14 04:18:30;;;;;;;9.38;7.50;;;13.60;99.90;;;;;;5415065;26;20072;-73
2024/04/14 04:20:57;;;;;;;11.05;7.65;;;13.70;98.50;;;;;;5414718;26;20046;-75
2024/04/14 04:23:23;;;;;;;10.90;7.05;;;13.70;95.80;;;;;;5415004;26;19991;-75
2024/04/14 04:25:50;;;;;;;9.77;7.85;;;13.70;74.40;;;;;;5344064;26;20454;-74
2024/04/14 04:28:16;;;;;;;9.85;7.47;;;13.80;51.10;;;;;;5344094;26;19993;-74
2024/04/14 04:30:41;;;;;;;11.02;7.40;;;13.80;25.80;;;;;;5344115;26;20011;-74
2024/04/14 04:33:07;;;;;;;10.50;7.30;;;13.80;7.50;;;;;;5344294;26;20282;-74
2024/04/14 04:35:33;;;;;;;8.60;6.80;;;13.80;1.00;;;;;;5344220;26;20376;-74
2024/04/14 04:37:58;;;;;;;9.35;7.30;;;13.90;1.00;;;;;;5344270;26;20035;-74
2024/04/14 04:40:24;;;;;;;9.80;7.15;;;13.90;1.00;;;;;;5343958;26;20573;-73
2024/04/14 04:42:52;;;;;;;10.75;7.38;;;14.00;1.00;;;;;;5344255;26;20004;-73
2024/04/14 04:45:18;;;;;;;10.45;7.28;;;14.00;1.00;;;;;;5344278;26;19997;-74
2024/04/14 04:47:44;;;;;;;11.30;7.35;;;14.10;1.00;;;;;;5343988;26;19997;-74
2024/04/14 04:50:09;;;;;;;11.48;7.07;;;14.20;1.00;;;;;;5309254;26;19990;-74
2024/04/14 04:52:35;;;;;;;9.50;7.30;;;14.20;1.00;;;;;;5241909;27;20006;-74
2024/04/14 04:55:02;;;;;;;9.43;7.60;;;14.20;1.00;;;;;;5208984;27;20011;-74
2024/04/14 04:57:27;;;;;;;9.48;7.40;;;14.30;1.00;;;;;;5208798;27;19999;-74
2024/04/14 04:59:54;;;;;;;10.35;6.80;;;14.40;1.00;;;;;;5208326;27;20499;-73
2024/04/14 05:02:19;;;;;;;9.10;7.30;;;14.50;99.90;;;;;;5149061;27;20004;-74
2024/04/14 05:04:45;;;;;;;9.93;6.88;;;14.60;99.90;;;;;;5175379;27;20009;-73
2024/04/14 05:07:10;;;;;;;9.25;6.90;;;14.70;99.90;;;;;;5175869;27;20072;-74
2024/04/14 05:09:36;;;;;;;8.38;6.60;;;14.90;99.90;;;;;;5175752;27;20144;-73
2024/04/14 05:12:02;;;;;;;9.88;6.93;;;15.00;99.90;;;;;;5176116;27;20012;-74
2024/04/14 05:14:28;;;;;;;7.47;6.63;;;15.10;99.90;;;;;;5144932;27;20001;-73
2024/04/14 05:16:54;;;;;;;10.23;6.90;;;15.20;99.90;;;;;;5113945;28;20004;-74
2024/04/14 05:19:19;;;;;;;7.65;6.60;;;15.30;99.90;;;;;;5114450;28;20001;-74
2024/04/14 05:21:45;;;;;;;9.00;6.68;;;15.60;99.90;;;;;;5068304;28;19999;-73
2024/04/14 05:24:11;;;;;;;10.50;7.20;;;15.90;20.00;;;;;;5051563;28;20014;-74
2024/04/14 05:26:37;;;;;;;8.20;6.35;;;16.00;1.00;;;;;;5097727;28;20001;-73
2024/04/14 05:29:03;;;;;;;9.45;6.10;;;16.00;1.00;;;;;;5150851;27;20305;-74
2024/04/14 05:31:28;;;;;;;8.48;6.28;;;16.30;1.00;;;;;;5211279;27;20006;-74
2024/04/14 05:33:56;;;;;;;7.45;5.80;;;16.50;1.00;;;;;;5211358;27;19996;-74
2024/04/14 05:36:21;;;;;;;8.23;5.75;;;16.80;99.90;;;;;;5154416;27;20318;-74
2024/04/14 05:38:50;;;;;;;8.10;5.63;;;16.80;99.90;;;;;;5153236;27;20008;-74
2024/04/14 05:41:15;;;;;;;8.02;5.95;;;17.10;99.90;;;;;;5243802;27;20135;-74
2024/04/14 05:43:42;;;;;;;7.97;5.40;;;17.70;99.90;;;;;;5244187;27;19999;-74
2024/04/14 05:46:07;;;;;;;7.10;5.25;;;17.80;1.00;;;;;;5294671;27;20440;-74
2024/04/14 05:48:33;;;;;;;8.00;5.60;;;18.30;99.90;;;;;;5286215;27;20023;-74
2024/04/14 05:50:58;;;;;;;7.10;4.95;;;19.50;1.00;;;;;;5278037;27;20028;-75
2024/04/14 05:53:24;;;;;;;6.95;4.82;;;20.30;1.00;;;;;;5278133;27;20036;-75
2024/04/14 05:55:49;;;;;;;6.78;5.18;;;20.70;99.90;;;;;;5277888;27;20005;-74
2024/04/14 05:58:15;;;;;;;6.57;4.80;;;20.90;99.90;;;;;;5278012;27;19998;-74
2024/04/14 06:00:40;;;;;;;7.57;4.47;;;21.00;99.90;;;;;;5311493;27;19990;-74
2024/04/14 06:03:07;;;;;;;6.28;4.40;;;21.30;22.50;;;;;;5312003;27;20154;-74
2024/04/14 06:05:34;;;;;;;6.40;4.35;;;21.40;1.00;;;;;;5308689;27;20447;-74
2024/04/14 06:07:59;;;;;;;5.18;3.70;;;21.20;1.00;;;;;;5329041;26;20021;-73
2024/04/14 06:10:26;;;;;;;5.82;4.00;;;20.50;1.00;;;;;;5346402;26;20012;-73
2024/04/14 06:12:51;;;;;;;6.20;4.30;;;20.80;1.00;;;;;;5346199;26;19997;-73
2024/04/14 06:15:17;;;;;;;6.47;4.32;;;20.40;1.00;;;;;;5345851;26;20007;-73
2024/04/14 06:17:42;;;;;;;6.28;4.10;;;21.00;1.00;;;;;;5311449;27;20008;-73
2024/04/14 06:20:08;;;;;;;6.25;3.78;;;21.30;1.00;;;;;;5311374;27;20396;-75
2024/04/14 06:22:34;;;;;;;5.47;4.15;;;21.60;99.90;;;;;;5311094;27;20005;-75
2024/04/14 06:24:59;;;;;;;5.47;3.90;;;22.00;99.90;;;;;;5312166;27;20004;-74
2024/04/14 06:27:25;;;;;;;6.25;3.88;;;21.90;99.90;;;;;;5320797;26;19989;-74
2024/04/14 06:29:51;;;;;;;6.03;3.80;;;22.30;99.90;;;;;;5311315;27;20133;-74
2024/04/14 06:32:16;;;;;;;7.78;3.70;;;22.70;99.90;;;;;;5286649;27;20010;-74
2024/04/14 06:34:42;;;;;;;5.63;3.90;;;23.00;99.90;;;;;;5277330;27;20457;-74
2024/04/14 06:37:07;;;;;;;8.07;4.38;;;23.30;99.90;;;;;;5326623;26;20007;-74
2024/04/14 06:39:33;;;;;;;6.38;4.07;;;23.00;99.90;;;;;;5346054;26;19997;-74
2024/04/14 06:41:59;;;;;;;8.20;4.35;;;23.10;99.90;;;;;;5345608;26;20398;-74
2024/04/14 06:44:25;;;;;;;6.35;3.60;;;23.40;99.90;;;;;;5345484;26;20025;-75
2024/04/14 06:46:50;;;;;;;5.45;3.70;;;23.70;99.90;;;;;;5311160;27;19997;-74
2024/04/14 06:49:16;;;;;;;5.88;4.03;;;23.40;99.90;;;;;;5335374;26;19993;-74
2024/04/14 06:51:41;;;;;;;6.75;3.95;;;24.10;99.90;;;;;;5345586;26;20044;-74
2024/04/14 06:54:07;;;;;;;8.10;3.90;;;24.70;99.90;;;;;;5345445;26;20059;-74
2024/04/14 06:56:35;;;;;;;5.70;3.72;;;24.90;99.90;;;;;;5345850;26;20007;-74
2024/04/14 06:59:01;;;;;;;5.90;3.67;;;24.90;99.90;;;;;;5267517;27;20449;-75
2024/04/14 07:01:26;;;;;;;5.32;3.58;;;24.70;99.90;;;;;;5276878;27;19998;-75
2024/04/14 07:03:52;;;;;;;5.97;3.47;;;25.00;99.90;;;;;;5276694;27;19998;-74
2024/04/14 07:06:17;;;;;;;5.50;3.50;;;25.20;93.90;;;;;;5276441;27;20005;-74
2024/04/14 07:08:43;;;;;;;5.85;3.75;;;24.70;84.90;;;;;;5277075;27;20035;-74
2024/04/14 07:11:09;;;;;;;5.50;3.65;;;24.70;84.80;;;;;;5251796;27;20010;-73
2024/04/14 07:13:35;;;;;;;6.35;3.95;;;24.90;77.60;;;;;;5242857;27;20062;-73
2024/04/14 07:16:00;;;;;;;6.25;3.58;;;24.40;70.70;;;;;;5242870;27;20031;-75
2024/04/14 07:18:26;;;;;;;5.32;3.60;;;23.90;72.80;;;;;;5292671;27;19993;-74
2024/04/14 07:20:52;;;;;;;5.47;3.75;;;23.50;93.30;;;;;;5311358;27;20337;-75
2024/04/14 07:23:17;;;;;;;5.90;3.65;;;23.60;92.60;;;;;;5310594;27;20079;-75
2024/04/14 07:25:43;;;;;;;6.97;3.40;;;24.00;86.20;;;;;;5310954;27;20053;-76
2024/04/14 07:28:08;;;;;;;5.30;3.30;;;24.30;95.20;;;;;;5310629;27;20002;-75
2024/04/14 07:30:34;;;;;;;6.35;3.30;;;25.00;89.30;;;;;;5385466;26;20061;-74
2024/04/14 07:32:59;;;;;;;6.68;3.50;;;25.40;70.00;;;;;;5379779;26;19999;-75
2024/04/14 07:35:25;;;;;;;4.88;3.55;;;25.30;47.70;;;;;;5380480;26;19993;-75
2024/04/14 07:37:51;;;;;;;5.10;3.38;;;25.60;41.60;;;;;;5380063;26;19999;-75
2024/04/14 07:40:16;;;;;;;5.32;3.30;;;25.60;31.50;;;;;;5310471;27;20071;-74
2024/04/14 07:42:42;;;;;;;7.07;3.35;;;25.50;19.90;;;;;;5310695;27;20009;-77
2024/04/14 07:45:07;;;;;;;5.50;3.38;;;25.50;17.50;;;;;;5310374;27;20412;-77
2024/04/14 07:47:33;;;;;;;5.75;3.10;;;26.40;9.80;;;;;;5310891;27;20038;-77
2024/04/14 07:49:58;;;;;;;6.45;3.08;;;26.50;7.60;;;;;;5310296;27;20008;-77
2024/04/14 07:52:24;;;;;;;8.10;3.00;;;27.00;1.00;;;;;;5310998;27;20425;-75
2024/04/14 07:54:49;;;;;;;9.57;3.45;;;27.40;1.00;;;;;;5310555;27;20115;-75
2024/04/14 07:57:15;;;;;;;8.98;3.30;;;27.60;1.00;;;;;;5310676;27;20432;-75
2024/04/14 07:59:40;;;;;;;3.83;2.70;;;28.60;1.00;;;;;;5310662;27;19998;-76
2024/04/14 08:02:06;;;;;;;4.35;3.13;;;29.80;1.00;;;;;;5286602;27;20006;-77
2024/04/14 08:04:31;;;;;;;5.55;3.00;;;30.30;1.00;;;;;;5276597;27;20335;-77
2024/04/14 08:06:57;;;;;;;7.75;2.85;;;29.80;1.00;;;;;;5276326;27;19998;-76
2024/04/14 08:09:22;;;;;;;10.60;3.83;;;29.80;1.00;;;;;;5276378;27;20002;-77
2024/04/14 08:11:48;;;;;;;6.50;3.08;;;29.00;1.00;;;;;;5300320;27;20048;-77
2024/04/14 08:14:14;;;;;;;5.63;3.10;;;28.20;1.00;;;;;;5311021;27;20002;-77
2024/04/14 08:16:39;;;;;;;5.50;3.25;;;27.90;1.00;;;;;;5310859;27;20441;-76
2024/04/14 08:19:05;;;;;;;6.88;2.90;;;27.00;1.00;;;;;;5310950;27;20422;-77
2024/04/14 08:21:31;;;;;;;7.72;3.15;;;27.10;1.00;;;;;;5310192;27;20088;-77
2024/04/14 08:23:56;;;;;;;7.20;3.00;;;26.30;1.00;;;;;;5310120;27;20002;-75
2024/04/14 08:26:22;;;;;;;8.93;3.30;;;26.40;1.00;;;;;;5311054;27;20001;-76
2024/04/14 08:28:48;;;;;;;5.47;2.75;;;26.90;1.00;;;;;;5361874;26;20355;-77
2024/04/14 08:31:13;;;;;;;4.13;2.70;;;28.20;1.00;;;;;;5382825;26;20008;-77
2024/04/14 08:33:39;;;;;;;6.03;2.80;;;29.60;1.00;;;;;;5379223;26;20007;-77
2024/04/14 08:36:05;;;;;;;7.07;3.30;;;29.40;1.00;;;;;;5310080;27;20332;-76
2024/04/14 08:38:31;;;;;;;4.50;3.00;;;30.70;1.00;;;;;;5310078;27;20002;-77
2024/04/14 08:40:58;;;;;;;6.28;3.20;;;31.30;1.00;;;;;;5275557;27;20311;-77
2024/04/14 08:43:24;;;;;;;6.18;3.20;;;31.90;1.00;;;;;;5275636;27;19994;-76
2024/04/14 08:45:50;;;;;;;7.13;3.33;;;31.80;1.00;;;;;;5241649;27;20448;-76
2024/04/14 08:48:19;;;;;;;3.58;2.63;;;32.00;1.00;;;;;;5241880;27;20447;-77
2024/04/14 08:50:46;;;;;;;6.97;2.80;;;33.00;1.00;;;;;;5245524;27;20011;-75
2024/04/14 08:53:15;;;;;;;5.80;3.25;;;33.70;1.00;;;;;;5211560;27;19996;-75
2024/04/14 08:55:41;;;;;;;7.82;3.53;;;34.20;1.00;;;;;;5211504;27;20059;-75
2024/04/14 08:58:09;;;;;;;8.15;3.40;;;33.60;1.00;;;;;;5211478;27;20003;-75
2024/04/14 09:00:37;;;;;;;5.47;3.65;;;32.50;99.90;;;;;;5211728;27;20041;-75
2024/04/14 09:03:04;;;;;;;7.45;3.88;;;31.70;1.00;;;;;;5211505;27;20572;-75
2024/04/14 09:05:34;;;;;;;7.50;3.45;;;32.00;1.00;;;;;;5211563;27;20002;-77
2024/04/14 09:07:59;;;;;;;6.80;3.70;;;30.90;1.00;;;;;;5298037;27;20005;-77
2024/04/14 09:10:27;;;;;;;5.22;3.78;;;31.10;1.00;;;;;;5312110;27;19997;-76
2024/04/14 09:12:55;;;;;;;7.95;3.97;;;30.90;1.00;;;;;;5312096;27;19992;-76
2024/04/14 09:15:21;;;;;;;6.75;3.72;;;30.40;1.00;;;;;;5312725;27;19998;-75
2024/04/14 09:17:47;;;;;;;6.90;4.22;;;30.60;1.00;;;;;;5342747;26;19993;-76
2024/04/14 09:20:13;;;;;;;6.22;3.90;;;31.00;1.00;;;;;;5347195;26;20028;-76
2024/04/14 09:22:39;;;;;;;14.48;4.75;;;30.90;1.00;;;;;;5346875;26;20193;-76
2024/04/14 09:25:06;;;;;;;8.07;4.57;;;29.00;1.00;;;;;;5317816;26;20424;-76
2024/04/14 09:27:32;;;;;;;8.30;4.07;;;28.00;1.00;;;;;;5312552;27;20033;-76
2024/04/14 09:30:14;;;;;;;8.25;5.40;;;27.60;1.00;;;;;;5370542;26;20007;-74
2024/04/14 09:32:41;;;;;;;18.25;5.10;;;27.40;1.00;;;;;;5382078;26;19992;-75
2024/04/14 09:35:09;;;;;;;8.55;4.70;;;27.40;99.90;;;;;;5382573;26;20003;-76
2024/04/14 09:37:36;;;;;;;12.82;5.25;;;27.60;1.00;;;;;;5382432;26;20002;-75
2024/04/14 09:40:06;;;;;;;9.40;4.47;;;27.10;1.00;;;;;;5346548;26;20055;-75
2024/04/14 09:42:33;;;;;;;8.30;4.80;;;28.00;1.00;;;;;;5346432;26;19993;-74
2024/04/14 09:45:00;;;;;;;7.75;4.45;;;28.70;1.00;;;;;;5347014;26;20008;-75
2024/04/14 09:47:26;;;;;;;8.63;4.60;;;28.50;99.90;;;;;;5312254;27;20006;-76
2024/04/14 09:49:54;;;;;;;9.27;4.78;;;28.20;99.90;;;;;;5311896;27;20383;-74
2024/04/14 09:52:21;;;;;;;8.98;4.60;;;28.20;1.00;;;;;;5278704;27;20300;-75
2024/04/14 09:54:48;;;;;;;9.13;5.03;;;27.00;1.00;;;;;;5278371;27;19994;-75
2024/04/14 09:57:13;;;;;;;21.40;5.15;;;25.90;1.00;;;;;;5277657;27;20410;-75
2024/04/14 09:59:39;;;;;;;11.93;4.65;;;24.80;1.00;;;;;;5277906;27;20005;-76
2024/04/14 10:02:11;;;;;;;13.13;4.70;;;24.20;1.00;;;;;;5278168;27;20000;-81
2024/04/14 10:04:44;;;;;;;13.32;5.10;;;23.70;1.00;;;;;;5279003;27;20116;-83
2024/04/14 10:07:12;;;;;;;11.63;4.70;;;23.20;1.00;;;;;;5278857;27;20005;-83
2024/04/14 10:09:37;;;;;;;10.25;4.28;;;22.80;1.00;;;;;;5278482;27;20359;-82
2024/04/14 10:12:03;;;;;;;14.20;4.72;;;22.90;1.00;;;;;;5274512;27;20002;-84
2024/04/14 10:14:39;;;;;;;9.27;4.38;;;23.10;1.00;;;;;;5210447;27;20542;-83
2024/04/14 10:17:06;;;;;;;11.20;3.92;;;23.70;1.00;;;;;;5244003;27;20001;-82
2024/04/14 10:19:34;;;;;;;10.20;4.30;;;24.80;1.00;;;;;;5275227;27;20018;-81
2024/04/14 10:22:01;;;;;;;9.40;4.22;;;25.70;1.00;;;;;;5278002;27;19994;-82
2024/04/14 10:24:29;;;;;;;8.82;3.88;;;26.50;1.00;;;;;;5309329;27;19994;-79
2024/04/14 10:27:07;;;;;;;11.30;5.13;;;27.10;1.00;;;;;;5276895;27;20068;-81
2024/04/14 10:29:32;;;;;;;7.78;3.45;;;27.40;1.00;;;;;;5243773;27;20007;-78
2024/04/14 10:31:58;;;;;;;5.68;3.55;;;27.20;1.00;;;;;;5243283;27;19999;-80
2024/04/14 10:34:24;;;;;;;6.13;3.13;;;27.20;1.00;;;;;;5243722;27;19995;-78
2024/04/14 10:36:59;;;;;;;6.07;2.95;;;27.60;1.00;;;;;;5243162;27;20007;-79
2024/04/14 10:39:25;;;;;;;6.15;3.35;;;28.00;99.90;;;;;;5243722;27;20569;-80
2024/04/14 10:41:51;;;;;;;10.52;4.18;;;27.80;99.90;;;;;;5243638;27;20007;-79
2024/04/14 10:44:17;;;;;;;13.10;3.42;;;26.90;99.90;;;;;;5145394;27;20007;-77
2024/04/14 10:46:44;;;;;;;7.85;3.17;;;26.30;99.90;;;;;;5177028;27;20487;-81
2024/04/14 10:49:10;;;;;;;15.00;3.10;;;25.80;99.90;;;;;;5117759;27;20002;-76
2024/04/14 10:51:36;;;;;;;16.50;3.10;;;25.40;99.90;;;;;;5199279;27;20006;-74
2024/04/14 10:54:02;;;;;;;12.50;3.47;;;25.40;99.90;;;;;;5243794;27;19999;-74
2024/04/14 10:56:28;;;;;;;7.68;3.28;;;25.90;99.90;;;;;;5177548;27;19993;-74
2024/04/14 10:58:54;;;;;;;7.10;2.80;;;25.10;99.90;;;;;;5177527;27;20431;-73
2024/04/14 11:01:20;;;;;;;12.98;4.22;;;25.10;99.90;;;;;;5177280;27;20071;-74
2024/04/14 11:03:47;;;;;;;6.30;3.13;;;24.20;99.90;;;;;;5144997;27;20001;-73
2024/04/14 11:06:13;;;;;;;9.15;3.20;;;23.60;99.90;;;;;;5210089;27;19996;-73
2024/04/14 11:08:41;;;;;;;11.45;4.78;;;23.10;99.90;;;;;;5183312;27;20072;-73
2024/04/14 11:11:07;;;;;;;6.18;3.45;;;22.60;1.00;;;;;;5176493;27;20000;-73
2024/04/14 11:13:33;;;;;;;8.48;3.50;;;22.20;1.00;;;;;;5209489;27;20517;-73
2024/04/14 11:15:59;;;;;;;5.68;3.15;;;21.70;1.00;;;;;;5185005;27;20000;-73
2024/04/14 11:18:29;;;;;;;6.20;3.22;;;21.60;1.00;;;;;;5176875;27;20457;-73
2024/04/14 11:20:54;;;;;;;8.52;3.40;;;21.20;1.00;;;;;;5177441;27;20000;-73
2024/04/14 11:23:24;;;;;;;6.75;3.58;;;21.10;1.00;;;;;;5144992;27;20311;-72
2024/04/14 11:25:50;;;;;;;9.82;3.60;;;20.90;1.00;;;;;;5145294;27;19997;-72
2024/04/14 11:28:15;;;;;;;16.55;3.58;;;20.70;1.00;;;;;;5144152;27;20011;-72
2024/04/14 11:30:42;;;;;;;8.52;3.90;;;20.50;1.00;;;;;;5143487;27;20012;-75
2024/04/14 11:33:08;;;;;;;7.30;3.30;;;20.30;11.70;;;;;;5189275;27;20430;-73
2024/04/14 11:35:33;;;;;;;5.75;3.50;;;20.10;36.20;;;;;;5241300;27;20103;-74
2024/04/14 11:38:01;;;;;;;12.43;3.50;;;20.30;76.10;;;;;;5181073;27;20008;-73
2024/04/14 11:40:27;;;;;;;11.48;3.28;;;19.90;85.20;;;;;;5181584;27;19996;-73
2024/04/14 11:42:52;;;;;;;6.07;3.10;;;19.80;35.40;;;;;;5176676;27;20011;-73
2024/04/14 11:45:18;;;;;;;4.88;2.97;;;19.50;18.00;;;;;;5177064;27;20008;-73
2024/04/14 11:47:45;;;;;;;6.93;2.78;;;19.30;1.00;;;;;;5144053;27;20013;-74
2024/04/14 11:50:11;;;;;;;10.05;3.00;;;19.20;1.00;;;;;;5118055;27;20051;-75
2024/04/14 11:52:37;;;;;;;6.90;2.80;;;19.10;4.60;;;;;;5112207;28;20410;-74
2024/04/14 11:55:07;;;;;;;6.93;2.60;;;19.10;6.40;;;;;;5136378;27;20441;-73
2024/04/14 11:57:34;;;;;;;8.10;2.58;;;19.00;9.20;;;;;;5144263;27;20007;-74
2024/04/14 11:59:59;;;;;;;6.57;2.53;;;18.90;17.10;;;;;;5143721;27;20012;-75
2024/04/14 12:02:26;;;;;;;5.25;2.90;;;19.00;43.00;;;;;;5119285;27;20403;-74
2024/04/14 12:04:52;;;;;;;6.07;2.63;;;18.90;44.00;;;;;;5111777;28;19998;-73
2024/04/14 12:07:18;;;;;;;5.88;2.28;;;19.00;22.20;;;;;;5111607;28;20450;-74
2024/04/14 12:09:47;;;;;;;6.15;2.95;;;19.00;16.00;;;;;;5086889;28;20003;-82
2024/04/14 12:12:14;;;;;;;8.43;2.83;;;18.90;14.70;;;;;;5084407;28;20027;-79
2024/04/14 12:14:40;;;;;;;5.70;2.28;;;19.10;10.90;;;;;;5112198;28;19998;-79
2024/04/14 12:17:07;;;;;;;11.85;3.03;;;19.30;5.20;;;;;;5143832;27;20340;-80
2024/04/14 12:19:32;;;;;;;5.57;2.42;;;19.50;1.00;;;;;;5111828;28;20043;-79
2024/04/14 12:21:58;;;;;;;5.05;2.38;;;19.80;1.00;;;;;;5060824;28;20007;-78
2024/04/14 12:24:25;;;;;;;7.95;2.33;;;19.90;1.00;;;;;;5111316;28;20008;-78
2024/04/14 12:26:50;;;;;;;4.53;1.88;;;19.80;1.00;;;;;;5143196;27;19997;-78
2024/04/14 12:29:17;;;;;;;5.88;2.00;;;19.90;1.00;;;;;;5143554;27;20403;-78
2024/04/14 12:31:43;;;;;;;7.15;2.08;;;20.20;1.00;;;;;;5143397;27;20077;-78
2024/04/14 12:34:09;;;;;;;4.28;1.90;;;20.70;1.00;;;;;;5143243;27;20004;-79
2024/04/14 12:36:35;;;;;;;6.53;1.88;;;21.00;1.00;;;;;;5118538;27;20070;-79
2024/04/14 12:39:00;;;;;;;4.55;1.83;;;21.30;1.00;;;;;;5111278;28;20422;-79
2024/04/14 12:41:26;;;;;;;5.18;2.00;;;21.10;1.00;;;;;;5135937;27;20077;-80